Terminal Aerodrome Forecast
Issued by NWS Pueblo, CO

Home | Current Version | Previous Version | Text Only | Print | Product List | Glossary On
Versions: 1 2 3 4 5 6 7 8 9 10 11 12 13 14 15 16 17
000
FTUS45 KPUB 231120
TAFALS
TAF
KALS 231120Z 2312/2412 VRB04KT P6SM SKC
     FM232100 23006KT P6SM SKC
     FM240300 VRB04KT P6SM SKC=

USA.gov is the U.S. government's official web portal to all federal, state and local government web resources and services.